sensor_id;sensor_type;location;lat;lon;timestamp;temperature;humidity
14101;DHT22;7127;49.372;8.166;2023-05-07T00:02:24;20.40;47.70
14101;DHT22;7127;49.372;8.166;2023-05-07T00:04:54;20.40;47.70
14101;DHT22;7127;49.372;8.166;2023-05-07T00:07:22;20.40;47.80
14101;DHT22;7127;49.372;8.166;2023-05-07T00:09:51;20.30;47.80
14101;DHT22;7127;49.372;8.166;2023-05-07T00:12:21;20.30;47.90
14101;DHT22;7127;49.372;8.166;2023-05-07T00:14:48;20.30;47.90
14101;DHT22;7127;49.372;8.166;2023-05-07T00:17:16;20.20;47.90
14101;DHT22;7127;49.372;8.166;2023-05-07T00:19:44;20.20;47.90
14101;DHT22;7127;49.372;8.166;2023-05-07T00:22:14;20.20;48.00
14101;DHT22;7127;49.372;8.166;2023-05-07T00:24:44;20.10;48.10
14101;DHT22;7127;49.372;8.166;2023-05-07T00:27:12;20.10;48.10
14101;DHT22;7127;49.372;8.166;2023-05-07T00:29:39;20.10;48.10
14101;DHT22;7127;49.372;8.166;2023-05-07T00:32:08;20.10;48.20
14101;DHT22;7127;49.372;8.166;2023-05-07T00:34:38;20.00;48.20
14101;DHT22;7127;49.372;8.166;2023-05-07T00:37:06;20.00;48.20
14101;DHT22;7127;49.372;8.166;2023-05-07T00:39:36;20.00;48.20
14101;DHT22;7127;49.372;8.166;2023-05-07T00:42:14;20.00;48.40
14101;DHT22;7127;49.372;8.166;2023-05-07T00:44:44;19.90;48.40
14101;DHT22;7127;49.372;8.166;2023-05-07T00:47:15;19.90;48.30
14101;DHT22;7127;49.372;8.166;2023-05-07T00:49:44;19.90;48.30
14101;DHT22;7127;49.372;8.166;2023-05-07T00:52:16;19.80;48.30
14101;DHT22;7127;49.372;8.166;2023-05-07T00:54:47;19.80;48.60
14101;DHT22;7127;49.372;8.166;2023-05-07T00:57:15;19.80;48.60
14101;DHT22;7127;49.372;8.166;2023-05-07T00:59:44;19.80;48.50
14101;DHT22;7127;49.372;8.166;2023-05-07T01:02:12;19.80;48.60
14101;DHT22;7127;49.372;8.166;2023-05-07T01:04:40;19.70;48.50
14101;DHT22;7127;49.372;8.166;2023-05-07T01:07:10;19.80;48.70
14101;DHT22;7127;49.372;8.166;2023-05-07T01:09:38;19.60;48.60
14101;DHT22;7127;49.372;8.166;2023-05-07T01:12:11;19.70;48.70
14101;DHT22;7127;49.372;8.166;2023-05-07T01:14:41;19.70;48.80
14101;DHT22;7127;49.372;8.166;2023-05-07T01:17:16;19.70;48.70
14101;DHT22;7127;49.372;8.166;2023-05-07T01:19:44;19.60;48.80
14101;DHT22;7127;49.372;8.166;2023-05-07T01:22:15;19.60;48.80
14101;DHT22;7127;49.372;8.166;2023-05-07T01:24:46;19.50;48.80
14101;DHT22;7127;49.372;8.166;2023-05-07T01:27:20;19.50;48.80
14101;DHT22;7127;49.372;8.166;2023-05-07T01:29:55;19.50;49.00
14101;DHT22;7127;49.372;8.166;2023-05-07T01:32:38;19.60;49.20
14101;DHT22;7127;49.372;8.166;2023-05-07T01:35:10;19.40;49.30
14101;DHT22;7127;49.372;8.166;2023-05-07T01:37:54;19.50;49.30
14101;DHT22;7127;49.372;8.166;2023-05-07T01:40:27;19.30;49.20
14101;DHT22;7127;49.372;8.166;2023-05-07T01:42:56;19.30;49.20
14101;DHT22;7127;49.372;8.166;2023-05-07T01:45:25;19.30;49.20
14101;DHT22;7127;49.372;8.166;2023-05-07T01:47:54;19.30;49.30
14101;DHT22;7127;49.372;8.166;2023-05-07T01:50:23;19.10;49.10
14101;DHT22;7127;49.372;8.166;2023-05-07T01:52:51;19.20;49.30
14101;DHT22;7127;49.372;8.166;2023-05-07T01:55:20;19.10;49.40
14101;DHT22;7127;49.372;8.166;2023-05-07T01:57:49;19.10;49.30
14101;DHT22;7127;49.372;8.166;2023-05-07T02:00:17;19.10;49.40
14101;DHT22;7127;49.372;8.166;2023-05-07T02:02:45;19.10;49.40
14101;DHT22;7127;49.372;8.166;2023-05-07T02:05:13;19.10;49.50
14101;DHT22;7127;49.372;8.166;2023-05-07T02:07:41;19.00;49.50
14101;DHT22;7127;49.372;8.166;2023-05-07T02:10:09;19.10;49.60
14101;DHT22;7127;49.372;8.166;2023-05-07T02:12:39;19.00;49.60
14101;DHT22;7127;49.372;8.166;2023-05-07T02:15:10;19.10;49.70
14101;DHT22;7127;49.372;8.166;2023-05-07T02:17:59;19.00;49.70
14101;DHT22;7127;49.372;8.166;2023-05-07T02:20:29;18.90;49.90
14101;DHT22;7127;49.372;8.166;2023-05-07T02:22:56;19.00;49.70
14101;DHT22;7127;49.372;8.166;2023-05-07T02:25:24;18.90;49.70
14101;DHT22;7127;49.372;8.166;2023-05-07T02:27:54;18.90;49.60
14101;DHT22;7127;49.372;8.166;2023-05-07T02:30:29;18.90;49.80
14101;DHT22;7127;49.372;8.166;2023-05-07T02:32:57;18.90;50.00
14101;DHT22;7127;49.372;8.166;2023-05-07T02:35:25;18.80;49.80
14101;DHT22;7127;49.372;8.166;2023-05-07T02:38:05;18.80;50.40
14101;DHT22;7127;49.372;8.166;2023-05-07T02:40:32;18.80;50.10
14101;DHT22;7127;49.372;8.166;2023-05-07T02:43:04;18.80;49.90
14101;DHT22;7127;49.372;8.166;2023-05-07T02:45:39;18.70;49.90
14101;DHT22;7127;49.372;8.166;2023-05-07T02:48:06;18.70;50.10
14101;DHT22;7127;49.372;8.166;2023-05-07T02:50:34;18.60;50.00
14101;DHT22;7127;49.372;8.166;2023-05-07T02:53:02;18.70;50.20
14101;DHT22;7127;49.372;8.166;2023-05-07T02:55:29;18.70;50.20
14101;DHT22;7127;49.372;8.166;2023-05-07T02:57:57;18.70;50.30
14101;DHT22;7127;49.372;8.166;2023-05-07T03:00:26;18.60;50.20
14101;DHT22;7127;49.372;8.166;2023-05-07T03:02:56;18.60;50.30
14101;DHT22;7127;49.372;8.166;2023-05-07T03:05:24;18.50;50.30
14101;DHT22;7127;49.372;8.166;2023-05-07T03:07:52;18.50;50.30
14101;DHT22;7127;49.372;8.166;2023-05-07T03:10:19;18.50;50.30
14101;DHT22;7127;49.372;8.166;2023-05-07T03:13:01;18.50;50.30
14101;DHT22;7127;49.372;8.166;2023-05-07T03:15:29;18.40;50.60
14101;DHT22;7127;49.372;8.166;2023-05-07T03:17:59;18.50;50.40
14101;DHT22;7127;49.372;8.166;2023-05-07T03:20:27;18.40;50.50
14101;DHT22;7127;49.372;8.166;2023-05-07T03:22:55;18.40;50.40
14101;DHT22;7127;49.372;8.166;2023-05-07T03:25:23;18.40;50.50
14101;DHT22;7127;49.372;8.166;2023-05-07T03:27:56;18.40;50.50
14101;DHT22;7127;49.372;8.166;2023-05-07T03:30:39;18.40;50.60
14101;DHT22;7127;49.372;8.166;2023-05-07T03:33:14;18.30;50.80
14101;DHT22;7127;49.372;8.166;2023-05-07T03:35:42;18.30;50.80
14101;DHT22;7127;49.372;8.166;2023-05-07T03:38:10;18.30;50.60
14101;DHT22;7127;49.372;8.166;2023-05-07T03:40:45;18.30;50.70
14101;DHT22;7127;49.372;8.166;2023-05-07T03:43:20;18.20;50.60
14101;DHT22;7127;49.372;8.166;2023-05-07T03:45:54;18.30;51.00
14101;DHT22;7127;49.372;8.166;2023-05-07T03:48:24;18.10;50.80
14101;DHT22;7127;49.372;8.166;2023-05-07T03:50:52;18.20;50.80
14101;DHT22;7127;49.372;8.166;2023-05-07T03:53:21;18.20;50.70
14101;DHT22;7127;49.372;8.166;2023-05-07T03:55:50;18.20;50.90
14101;DHT22;7127;49.372;8.166;2023-05-07T03:58:25;18.20;50.90
14101;DHT22;7127;49.372;8.166;2023-05-07T04:00:57;18.20;50.90
14101;DHT22;7127;49.372;8.166;2023-05-07T04:03:33;18.20;50.90
14101;DHT22;7127;49.372;8.166;2023-05-07T04:06:16;18.20;51.00
14101;DHT22;7127;49.372;8.166;2023-05-07T04:08:45;18.30;51.30
14101;DHT22;7127;49.372;8.166;2023-05-07T04:11:13;18.30;51.00
14101;DHT22;7127;49.372;8.166;2023-05-07T04:13:47;18.10;51.00
14101;DHT22;7127;49.372;8.166;2023-05-07T04:16:17;18.10;51.10
14101;DHT22;7127;49.372;8.166;2023-05-07T04:18:47;18.10;51.10
14101;DHT22;7127;49.372;8.166;2023-05-07T04:21:16;18.00;51.10
14101;DHT22;7127;49.372;8.166;2023-05-07T04:23:46;18.10;51.20
14101;DHT22;7127;49.372;8.166;2023-05-07T04:26:30;18.10;51.20
14101;DHT22;7127;49.372;8.166;2023-05-07T04:28:58;18.10;51.40
14101;DHT22;7127;49.372;8.166;2023-05-07T04:31:26;18.10;51.20
14101;DHT22;7127;49.372;8.166;2023-05-07T04:33:58;18.10;51.20
14101;DHT22;7127;49.372;8.166;2023-05-07T04:36:25;18.10;51.40
14101;DHT22;7127;49.372;8.166;2023-05-07T04:39:04;18.10;51.40
14101;DHT22;7127;49.372;8.166;2023-05-07T04:41:32;18.10;51.60
14101;DHT22;7127;49.372;8.166;2023-05-07T04:44:01;18.30;51.70
14101;DHT22;7127;49.372;8.166;2023-05-07T04:46:30;18.20;51.60
14101;DHT22;7127;49.372;8.166;2023-05-07T04:48:59;18.20;51.50
14101;DHT22;7127;49.372;8.166;2023-05-07T04:51:28;18.20;51.60
14101;DHT22;7127;49.372;8.166;2023-05-07T04:54:06;18.20;51.60
14101;DHT22;7127;49.372;8.166;2023-05-07T04:56:34;18.30;51.70
14101;DHT22;7127;49.372;8.166;2023-05-07T04:59:01;18.30;51.60
14101;DHT22;7127;49.372;8.166;2023-05-07T05:01:31;18.30;51.60
14101;DHT22;7127;49.372;8.166;2023-05-07T05:04:03;18.40;51.70
14101;DHT22;7127;49.372;8.166;2023-05-07T05:06:34;18.40;51.70
14101;DHT22;7127;49.372;8.166;2023-05-07T05:09:02;18.50;51.70
14101;DHT22;7127;49.372;8.166;2023-05-07T05:11:30;18.50;51.60
14101;DHT22;7127;49.372;8.166;2023-05-07T05:13:59;18.50;51.60
14101;DHT22;7127;49.372;8.166;2023-05-07T05:16:27;18.60;51.70
14101;DHT22;7127;49.372;8.166;2023-05-07T05:19:03;18.60;51.70
14101;DHT22;7127;49.372;8.166;2023-05-07T05:21:31;18.70;51.90
14101;DHT22;7127;49.372;8.166;2023-05-07T05:23:58;18.70;51.70
14101;DHT22;7127;49.372;8.166;2023-05-07T05:26:26;18.70;51.70
14101;DHT22;7127;49.372;8.166;2023-05-07T05:28:53;18.70;51.70
14101;DHT22;7127;49.372;8.166;2023-05-07T05:31:20;18.80;51.70
14101;DHT22;7127;49.372;8.166;2023-05-07T05:33:47;18.80;51.70
14101;DHT22;7127;49.372;8.166;2023-05-07T05:36:15;18.90;51.80
14101;DHT22;7127;49.372;8.166;2023-05-07T05:38:42;18.90;51.90
14101;DHT22;7127;49.372;8.166;2023-05-07T05:41:10;18.90;51.90
14101;DHT22;7127;49.372;8.166;2023-05-07T05:43:37;18.90;51.90
14101;DHT22;7127;49.372;8.166;2023-05-07T05:46:04;18.90;51.90
14101;DHT22;7127;49.372;8.166;2023-05-07T05:48:31;19.00;52.00
14101;DHT22;7127;49.372;8.166;2023-05-07T05:50:59;19.20;52.10
14101;DHT22;7127;49.372;8.166;2023-05-07T05:53:27;19.10;52.00
14101;DHT22;7127;49.372;8.166;2023-05-07T05:55:54;19.20;52.10
14101;DHT22;7127;49.372;8.166;2023-05-07T05:58:21;19.20;52.10
14101;DHT22;7127;49.372;8.166;2023-05-07T06:00:48;19.30;52.20
14101;DHT22;7127;49.372;8.166;2023-05-07T06:03:18;19.50;52.30
14101;DHT22;7127;49.372;8.166;2023-05-07T06:05:45;19.40;52.40
14101;DHT22;7127;49.372;8.166;2023-05-07T06:08:12;19.50;52.40
14101;DHT22;7127;49.372;8.166;2023-05-07T06:10:40;19.60;52.40
14101;DHT22;7127;49.372;8.166;2023-05-07T06:13:07;19.60;52.30
14101;DHT22;7127;49.372;8.166;2023-05-07T06:15:34;19.80;52.40
14101;DHT22;7127;49.372;8.166;2023-05-07T06:18:01;19.90;52.40
14101;DHT22;7127;49.372;8.166;2023-05-07T06:20:28;19.90;52.20
14101;DHT22;7127;49.372;8.166;2023-05-07T06:22:55;20.00;52.20
14101;DHT22;7127;49.372;8.166;2023-05-07T06:25:22;20.10;52.20
14101;DHT22;7127;49.372;8.166;2023-05-07T06:27:50;20.10;52.10
14101;DHT22;7127;49.372;8.166;2023-05-07T06:30:17;20.30;52.20
14101;DHT22;7127;49.372;8.166;2023-05-07T06:32:44;20.40;52.30
14101;DHT22;7127;49.372;8.166;2023-05-07T06:35:11;20.40;52.30
14101;DHT22;7127;49.372;8.166;2023-05-07T06:37:38;20.50;52.20
14101;DHT22;7127;49.372;8.166;2023-05-07T06:40:08;20.60;52.20
14101;DHT22;7127;49.372;8.166;2023-05-07T06:42:36;20.70;52.20
14101;DHT22;7127;49.372;8.166;2023-05-07T06:45:08;20.70;52.10
14101;DHT22;7127;49.372;8.166;2023-05-07T06:47:35;20.80;52.10
14101;DHT22;7127;49.372;8.166;2023-05-07T06:50:02;20.90;52.10
14101;DHT22;7127;49.372;8.166;2023-05-07T06:52:29;21.00;52.00
14101;DHT22;7127;49.372;8.166;2023-05-07T06:54:56;21.00;52.00
14101;DHT22;7127;49.372;8.166;2023-05-07T06:57:24;21.20;52.20
14101;DHT22;7127;49.372;8.166;2023-05-07T06:59:51;21.10;52.10
14101;DHT22;7127;49.372;8.166;2023-05-07T07:02:19;21.10;52.00
14101;DHT22;7127;49.372;8.166;2023-05-07T07:04:46;21.40;52.20
14101;DHT22;7127;49.372;8.166;2023-05-07T07:07:13;21.30;52.10
14101;DHT22;7127;49.372;8.166;2023-05-07T07:09:40;21.50;52.40
14101;DHT22;7127;49.372;8.166;2023-05-07T07:12:07;21.50;52.20
14101;DHT22;7127;49.372;8.166;2023-05-07T07:14:33;21.70;52.20
14101;DHT22;7127;49.372;8.166;2023-05-07T07:17:00;21.70;51.90
14101;DHT22;7127;49.372;8.166;2023-05-07T07:19:28;21.70;51.90
14101;DHT22;7127;49.372;8.166;2023-05-07T07:21:55;21.80;51.90
14101;DHT22;7127;49.372;8.166;2023-05-07T07:24:22;21.90;52.00
14101;DHT22;7127;49.372;8.166;2023-05-07T07:26:49;22.00;51.90
14101;DHT22;7127;49.372;8.166;2023-05-07T07:29:16;22.10;51.90
14101;DHT22;7127;49.372;8.166;2023-05-07T07:31:45;22.20;51.70
14101;DHT22;7127;49.372;8.166;2023-05-07T07:34:11;22.30;51.50
14101;DHT22;7127;49.372;8.166;2023-05-07T07:36:40;22.30;51.00
14101;DHT22;7127;49.372;8.166;2023-05-07T07:39:07;22.40;51.00
14101;DHT22;7127;49.372;8.166;2023-05-07T07:41:34;22.50;51.00
14101;DHT22;7127;49.372;8.166;2023-05-07T07:44:02;22.60;50.80
14101;DHT22;7127;49.372;8.166;2023-05-07T07:46:32;22.70;50.60
14101;DHT22;7127;49.372;8.166;2023-05-07T07:48:59;22.80;50.60
14101;DHT22;7127;49.372;8.166;2023-05-07T07:51:26;22.80;50.50
14101;DHT22;7127;49.372;8.166;2023-05-07T07:53:54;22.90;50.40
14101;DHT22;7127;49.372;8.166;2023-05-07T07:56:23;22.90;50.00
14101;DHT22;7127;49.372;8.166;2023-05-07T07:58:50;23.00;50.30
14101;DHT22;7127;49.372;8.166;2023-05-07T08:01:16;23.00;49.60
14101;DHT22;7127;49.372;8.166;2023-05-07T08:03:43;23.20;49.70
14101;DHT22;7127;49.372;8.166;2023-05-07T08:06:11;23.20;49.60
14101;DHT22;7127;49.372;8.166;2023-05-07T08:08:38;23.20;49.50
14101;DHT22;7127;49.372;8.166;2023-05-07T08:11:06;23.30;49.50
14101;DHT22;7127;49.372;8.166;2023-05-07T08:13:34;23.30;49.40
14101;DHT22;7127;49.372;8.166;2023-05-07T08:16:01;23.40;49.40
14101;DHT22;7127;49.372;8.166;2023-05-07T08:18:28;23.50;49.10
14101;DHT22;7127;49.372;8.166;2023-05-07T08:20:55;23.50;49.20
14101;DHT22;7127;49.372;8.166;2023-05-07T08:23:22;23.60;49.20
14101;DHT22;7127;49.372;8.166;2023-05-07T08:25:49;23.60;49.10
14101;DHT22;7127;49.372;8.166;2023-05-07T08:28:18;23.70;49.20
14101;DHT22;7127;49.372;8.166;2023-05-07T08:30:47;23.70;48.70
14101;DHT22;7127;49.372;8.166;2023-05-07T08:33:14;23.80;48.90
14101;DHT22;7127;49.372;8.166;2023-05-07T08:35:41;23.80;49.00
14101;DHT22;7127;49.372;8.166;2023-05-07T08:38:13;23.90;49.00
14101;DHT22;7127;49.372;8.166;2023-05-07T08:40:40;23.90;49.10
14101;DHT22;7127;49.372;8.166;2023-05-07T08:43:08;23.90;48.60
14101;DHT22;7127;49.372;8.166;2023-05-07T08:45:38;24.00;48.70
14101;DHT22;7127;49.372;8.166;2023-05-07T08:48:09;24.00;48.50
14101;DHT22;7127;49.372;8.166;2023-05-07T08:50:41;24.00;48.10
14101;DHT22;7127;49.372;8.166;2023-05-07T08:53:08;24.10;48.30
14101;DHT22;7127;49.372;8.166;2023-05-07T08:55:37;24.00;48.00
14101;DHT22;7127;49.372;8.166;2023-05-07T08:58:05;24.00;48.10
14101;DHT22;7127;49.372;8.166;2023-05-07T09:00:33;24.10;48.10
14101;DHT22;7127;49.372;8.166;2023-05-07T09:05:40;24.10;48.30
14101;DHT22;7127;49.372;8.166;2023-05-07T09:08:44;24.10;47.90
14101;DHT22;7127;49.372;8.166;2023-05-07T09:16:49;24.10;48.10
14101;DHT22;7127;49.372;8.166;2023-05-07T09:24:49;24.10;48.00
14101;DHT22;7127;49.372;8.166;2023-05-07T09:40:47;24.30;48.60
14101;DHT22;7127;49.372;8.166;2023-05-07T09:43:45;24.30;48.30
14101;DHT22;7127;49.372;8.166;2023-05-07T09:46:17;24.40;48.30
14101;DHT22;7127;49.372;8.166;2023-05-07T09:49:50;24.40;48.30
14101;DHT22;7127;49.372;8.166;2023-05-07T09:52:40;24.40;48.20
14101;DHT22;7127;49.372;8.166;2023-05-07T09:55:08;24.50;48.30
14101;DHT22;7127;49.372;8.166;2023-05-07T09:57:39;24.60;48.20
14101;DHT22;7127;49.372;8.166;2023-05-07T10:00:08;24.60;48.10
14101;DHT22;7127;49.372;8.166;2023-05-07T10:02:35;24.60;48.10
14101;DHT22;7127;49.372;8.166;2023-05-07T10:05:04;24.70;48.20
14101;DHT22;7127;49.372;8.166;2023-05-07T10:07:42;24.70;48.20
14101;DHT22;7127;49.372;8.166;2023-05-07T10:10:12;24.70;47.50
14101;DHT22;7127;49.372;8.166;2023-05-07T10:12:42;24.70;47.90
14101;DHT22;7127;49.372;8.166;2023-05-07T10:15:10;24.70;48.10
14101;DHT22;7127;49.372;8.166;2023-05-07T10:17:39;24.70;47.80
14101;DHT22;7127;49.372;8.166;2023-05-07T10:20:08;24.80;47.90
14101;DHT22;7127;49.372;8.166;2023-05-07T10:22:38;24.80;47.90
14101;DHT22;7127;49.372;8.166;2023-05-07T10:25:14;24.90;47.90
14101;DHT22;7127;49.372;8.166;2023-05-07T10:27:54;25.10;48.00
14101;DHT22;7127;49.372;8.166;2023-05-07T10:30:29;25.00;47.80
14101;DHT22;7127;49.372;8.166;2023-05-07T10:33:01;25.10;47.70
14101;DHT22;7127;49.372;8.166;2023-05-07T10:35:36;25.10;47.70
14101;DHT22;7127;49.372;8.166;2023-05-07T10:38:05;25.10;47.70
14101;DHT22;7127;49.372;8.166;2023-05-07T10:40:38;25.20;47.60
14101;DHT22;7127;49.372;8.166;2023-05-07T10:43:07;25.30;47.20
14101;DHT22;7127;49.372;8.166;2023-05-07T10:46:23;25.30;47.40
14101;DHT22;7127;49.372;8.166;2023-05-07T10:49:14;25.30;47.30
14101;DHT22;7127;49.372;8.166;2023-05-07T10:52:13;25.40;46.80
14101;DHT22;7127;49.372;8.166;2023-05-07T10:54:41;25.50;47.00
14101;DHT22;7127;49.372;8.166;2023-05-07T10:57:33;25.40;47.20
14101;DHT22;7127;49.372;8.166;2023-05-07T11:00:02;25.50;47.20
14101;DHT22;7127;49.372;8.166;2023-05-07T11:03:04;25.50;47.30
14101;DHT22;7127;49.372;8.166;2023-05-07T11:05:33;25.60;47.20
14101;DHT22;7127;49.372;8.166;2023-05-07T11:08:01;25.60;47.10
14101;DHT22;7127;49.372;8.166;2023-05-07T11:10:48;25.70;46.80
14101;DHT22;7127;49.372;8.166;2023-05-07T11:13:16;25.70;46.20
14101;DHT22;7127;49.372;8.166;2023-05-07T11:15:46;25.70;46.50
14101;DHT22;7127;49.372;8.166;2023-05-07T11:18:15;25.70;46.70
14101;DHT22;7127;49.372;8.166;2023-05-07T11:20:51;25.70;46.20
14101;DHT22;7127;49.372;8.166;2023-05-07T11:23:56;25.70;46.40
14101;DHT22;7127;49.372;8.166;2023-05-07T11:26:24;25.70;46.60
14101;DHT22;7127;49.372;8.166;2023-05-07T11:28:52;25.80;46.70
14101;DHT22;7127;49.372;8.166;2023-05-07T11:31:26;25.80;46.70
14101;DHT22;7127;49.372;8.166;2023-05-07T11:33:54;25.80;46.70
14101;DHT22;7127;49.372;8.166;2023-05-07T11:36:25;25.80;46.70
14101;DHT22;7127;49.372;8.166;2023-05-07T11:38:53;25.90;46.70
14101;DHT22;7127;49.372;8.166;2023-05-07T11:41:20;25.90;46.60
14101;DHT22;7127;49.372;8.166;2023-05-07T11:43:59;25.90;46.50
14101;DHT22;7127;49.372;8.166;2023-05-07T11:46:28;25.90;46.30
14101;DHT22;7127;49.372;8.166;2023-05-07T11:48:56;26.00;46.50
14101;DHT22;7127;49.372;8.166;2023-05-07T11:51:24;26.10;46.80
14101;DHT22;7127;49.372;8.166;2023-05-07T11:53:53;26.10;46.70
14101;DHT22;7127;49.372;8.166;2023-05-07T11:56:20;26.10;46.50
14101;DHT22;7127;49.372;8.166;2023-05-07T11:58:48;26.20;46.70
14101;DHT22;7127;49.372;8.166;2023-05-07T12:01:16;26.20;46.70
14101;DHT22;7127;49.372;8.166;2023-05-07T12:03:46;26.30;46.70
14101;DHT22;7127;49.372;8.166;2023-05-07T12:06:15;26.40;46.60
14101;DHT22;7127;49.372;8.166;2023-05-07T12:08:43;26.50;46.50
14101;DHT22;7127;49.372;8.166;2023-05-07T12:11:15;26.60;46.50
14101;DHT22;7127;49.372;8.166;2023-05-07T12:13:43;26.70;46.30
14101;DHT22;7127;49.372;8.166;2023-05-07T12:16:11;26.80;46.30
14101;DHT22;7127;49.372;8.166;2023-05-07T12:18:38;26.90;46.10
14101;DHT22;7127;49.372;8.166;2023-05-07T12:21:07;27.00;46.00
14101;DHT22;7127;49.372;8.166;2023-05-07T12:23:35;27.00;45.80
14101;DHT22;7127;49.372;8.166;2023-05-07T12:26:03;27.10;45.80
14101;DHT22;7127;49.372;8.166;2023-05-07T12:28:35;27.20;45.60
14101;DHT22;7127;49.372;8.166;2023-05-07T12:31:03;27.30;45.20
14101;DHT22;7127;49.372;8.166;2023-05-07T12:33:31;27.20;44.80
14101;DHT22;7127;49.372;8.166;2023-05-07T12:36:00;27.30;44.70
14101;DHT22;7127;49.372;8.166;2023-05-07T12:38:34;27.40;44.70
14101;DHT22;7127;49.372;8.166;2023-05-07T12:41:02;27.40;44.70
14101;DHT22;7127;49.372;8.166;2023-05-07T12:43:30;27.40;44.80
14101;DHT22;7127;49.372;8.166;2023-05-07T12:45:59;27.40;44.80
14101;DHT22;7127;49.372;8.166;2023-05-07T12:48:27;27.50;44.60
14101;DHT22;7127;49.372;8.166;2023-05-07T12:50:54;27.50;44.60
14101;DHT22;7127;49.372;8.166;2023-05-07T12:53:23;27.60;44.20
14101;DHT22;7127;49.372;8.166;2023-05-07T12:55:53;27.60;44.50
14101;DHT22;7127;49.372;8.166;2023-05-07T12:58:25;27.60;44.20
14101;DHT22;7127;49.372;8.166;2023-05-07T13:00:54;27.60;43.70
14101;DHT22;7127;49.372;8.166;2023-05-07T13:03:25;27.60;43.90
14101;DHT22;7127;49.372;8.166;2023-05-07T13:05:54;27.70;44.10
14101;DHT22;7127;49.372;8.166;2023-05-07T13:08:25;27.70;44.20
14101;DHT22;7127;49.372;8.166;2023-05-07T13:10:54;27.70;43.90
14101;DHT22;7127;49.372;8.166;2023-05-07T13:13:21;27.70;43.80
14101;DHT22;7127;49.372;8.166;2023-05-07T13:18:24;27.70;43.50
14101;DHT22;7127;49.372;8.166;2023-05-07T13:20:52;27.60;43.40
14101;DHT22;7127;49.372;8.166;2023-05-07T13:23:19;27.60;43.20
14101;DHT22;7127;49.372;8.166;2023-05-07T13:25:46;27.60;43.30
14101;DHT22;7127;49.372;8.166;2023-05-07T13:28:14;27.50;43.00
14101;DHT22;7127;49.372;8.166;2023-05-07T13:30:41;27.40;43.00
14101;DHT22;7127;49.372;8.166;2023-05-07T13:33:08;27.40;43.10
14101;DHT22;7127;49.372;8.166;2023-05-07T13:35:35;27.30;43.00
14101;DHT22;7127;49.372;8.166;2023-05-07T13:38:03;27.30;43.10
14101;DHT22;7127;49.372;8.166;2023-05-07T13:40:30;27.20;43.10
14101;DHT22;7127;49.372;8.166;2023-05-07T13:42:57;27.20;43.10
14101;DHT22;7127;49.372;8.166;2023-05-07T13:45:27;27.10;43.20
14101;DHT22;7127;49.372;8.166;2023-05-07T13:47:55;27.00;43.30
14101;DHT22;7127;49.372;8.166;2023-05-07T13:50:22;27.00;43.40
14101;DHT22;7127;49.372;8.166;2023-05-07T13:52:49;26.90;43.60
14101;DHT22;7127;49.372;8.166;2023-05-07T13:55:17;26.80;43.60
14101;DHT22;7127;49.372;8.166;2023-05-07T13:57:44;26.80;43.70
14101;DHT22;7127;49.372;8.166;2023-05-07T14:00:12;26.70;43.80
14101;DHT22;7127;49.372;8.166;2023-05-07T14:02:41;26.60;43.90
14101;DHT22;7127;49.372;8.166;2023-05-07T14:05:08;26.60;44.10
14101;DHT22;7127;49.372;8.166;2023-05-07T14:07:36;26.40;43.90
14101;DHT22;7127;49.372;8.166;2023-05-07T14:10:03;26.30;43.90
14101;DHT22;7127;49.372;8.166;2023-05-07T14:12:31;26.20;44.20
14101;DHT22;7127;49.372;8.166;2023-05-07T14:14:59;26.00;44.50
14101;DHT22;7127;49.372;8.166;2023-05-07T14:17:26;25.90;44.80
14101;DHT22;7127;49.372;8.166;2023-05-07T14:19:54;25.70;45.10
14101;DHT22;7127;49.372;8.166;2023-05-07T14:22:21;25.60;45.40
14101;DHT22;7127;49.372;8.166;2023-05-07T14:24:48;25.50;45.50
14101;DHT22;7127;49.372;8.166;2023-05-07T14:27:16;25.30;46.30
14101;DHT22;7127;49.372;8.166;2023-05-07T14:29:43;25.10;46.20
14101;DHT22;7127;49.372;8.166;2023-05-07T14:32:11;25.00;46.40
14101;DHT22;7127;49.372;8.166;2023-05-07T14:34:38;24.90;46.80
14101;DHT22;7127;49.372;8.166;2023-05-07T14:37:06;24.90;47.20
14101;DHT22;7127;49.372;8.166;2023-05-07T14:39:33;24.80;47.20
14101;DHT22;7127;49.372;8.166;2023-05-07T14:42:00;24.70;47.50
14101;DHT22;7127;49.372;8.166;2023-05-07T14:44:27;24.70;47.50
14101;DHT22;7127;49.372;8.166;2023-05-07T14:46:54;24.60;47.50
14101;DHT22;7127;49.372;8.166;2023-05-07T14:49:21;24.70;47.80
14101;DHT22;7127;49.372;8.166;2023-05-07T14:51:49;24.60;47.80
14101;DHT22;7127;49.372;8.166;2023-05-07T14:54:17;24.70;47.90
14101;DHT22;7127;49.372;8.166;2023-05-07T14:56:44;24.70;48.00
14101;DHT22;7127;49.372;8.166;2023-05-07T14:59:11;24.80;48.00
14101;DHT22;7127;49.372;8.166;2023-05-07T15:01:38;24.80;48.10
14101;DHT22;7127;49.372;8.166;2023-05-07T15:04:08;24.80;47.90
14101;DHT22;7127;49.372;8.166;2023-05-07T15:06:35;24.80;47.90
14101;DHT22;7127;49.372;8.166;2023-05-07T15:09:01;24.80;47.80
14101;DHT22;7127;49.372;8.166;2023-05-07T15:11:30;24.80;47.90
14101;DHT22;7127;49.372;8.166;2023-05-07T15:13:57;24.70;47.90
14101;DHT22;7127;49.372;8.166;2023-05-07T15:16:24;24.70;48.00
14101;DHT22;7127;49.372;8.166;2023-05-07T15:18:50;24.60;47.90
14101;DHT22;7127;49.372;8.166;2023-05-07T15:21:17;24.40;47.80
14101;DHT22;7127;49.372;8.166;2023-05-07T15:23:45;24.40;47.80
14101;DHT22;7127;49.372;8.166;2023-05-07T15:26:11;24.30;47.70
14101;DHT22;7127;49.372;8.166;2023-05-07T15:28:40;24.20;47.80
14101;DHT22;7127;49.372;8.166;2023-05-07T15:31:07;24.00;47.80
14101;DHT22;7127;49.372;8.166;2023-05-07T15:33:34;24.00;48.00
14101;DHT22;7127;49.372;8.166;2023-05-07T15:36:01;23.80;48.20
14101;DHT22;7127;49.372;8.166;2023-05-07T15:38:29;23.70;48.50
14101;DHT22;7127;49.372;8.166;2023-05-07T15:40:56;23.60;48.80
14101;DHT22;7127;49.372;8.166;2023-05-07T15:43:23;23.40;48.90
14101;DHT22;7127;49.372;8.166;2023-05-07T15:45:52;23.30;49.10
14101;DHT22;7127;49.372;8.166;2023-05-07T15:48:19;23.30;49.40
14101;DHT22;7127;49.372;8.166;2023-05-07T15:50:46;23.10;49.40
14101;DHT22;7127;49.372;8.166;2023-05-07T15:53:13;23.00;50.20
14101;DHT22;7127;49.372;8.166;2023-05-07T15:55:41;22.90;50.00
14101;DHT22;7127;49.372;8.166;2023-05-07T15:58:09;22.80;50.30
14101;DHT22;7127;49.372;8.166;2023-05-07T16:00:37;22.80;50.60
14101;DHT22;7127;49.372;8.166;2023-05-07T16:03:07;22.60;50.60
14101;DHT22;7127;49.372;8.166;2023-05-07T16:05:34;22.60;51.10
14101;DHT22;7127;49.372;8.166;2023-05-07T16:08:01;22.60;51.20
14101;DHT22;7127;49.372;8.166;2023-05-07T16:10:28;22.50;51.40
14101;DHT22;7127;49.372;8.166;2023-05-07T16:12:55;22.40;51.80
14101;DHT22;7127;49.372;8.166;2023-05-07T16:15:22;22.30;51.50
14101;DHT22;7127;49.372;8.166;2023-05-07T16:17:49;22.20;51.60
14101;DHT22;7127;49.372;8.166;2023-05-07T16:20:25;22.10;51.60
14101;DHT22;7127;49.372;8.166;2023-05-07T16:22:54;22.10;52.20
14101;DHT22;7127;49.372;8.166;2023-05-07T16:25:21;22.00;52.40
14101;DHT22;7127;49.372;8.166;2023-05-07T16:27:49;21.90;52.20
14101;DHT22;7127;49.372;8.166;2023-05-07T16:30:16;21.80;52.40
14101;DHT22;7127;49.372;8.166;2023-05-07T16:32:43;21.80;52.80